Time;durP1;ratioP1;P1;durP2;ratioP2;P2;SDS_P1;SDS_P2;PMS_P1;PMS_P2;Temp;Humidity;BMP_temperature;BMP_pressure;BME280_temperature;BME280_humidity;BME280_pressure;Samples;Min_cycle;Max_cycle;Signal;HPM_P1;HPM_P2
2022/05/13 00:01:11;;;;;;;4.33;1.73;;;11.70;99.90;;;;;;5010348;28;20204;-47
2022/05/13 00:03:40;;;;;;;4.03;1.50;;;11.70;99.90;;;;;;5029848;28;20198;-48
2022/05/13 00:06:08;;;;;;;4.33;1.70;;;11.60;99.90;;;;;;5027126;28;20219;-48
2022/05/13 00:08:34;;;;;;;6.47;1.80;;;11.60;99.90;;;;;;5021089;28;20218;-51
2022/05/13 00:11:05;;;;;;;4.23;1.70;;;11.60;99.90;;;;;;5025287;28;20204;-50
2022/05/13 00:13:32;;;;;;;4.93;1.63;;;11.60;99.90;;;;;;5030204;28;20257;-51
2022/05/13 00:16:00;;;;;;;6.00;1.47;;;11.60;99.90;;;;;;5024788;28;20227;-52
2022/05/13 00:18:27;;;;;;;1.93;1.40;;;11.50;99.90;;;;;;5011609;28;20212;-51
2022/05/13 00:20:54;;;;;;;4.07;1.83;;;11.50;99.90;;;;;;5024466;28;20204;-50
2022/05/13 00:23:20;;;;;;;2.77;1.60;;;11.50;99.90;;;;;;5022526;28;20207;-52
2022/05/13 00:25:47;;;;;;;4.43;1.60;;;11.50;99.90;;;;;;5022693;28;20215;-48
2022/05/13 00:28:15;;;;;;;4.43;1.63;;;;;;;;;;5024478;28;20572;-49
2022/05/13 00:30:45;;;;;;;4.93;1.63;;;11.40;99.90;;;;;;5021863;28;20935;-53
2022/05/13 00:33:12;;;;;;;4.57;1.33;;;;;;;;;;5011444;28;20219;-49
2022/05/13 00:35:39;;;;;;;4.63;1.90;;;11.20;99.90;;;;;;5032448;28;20437;-51
2022/05/13 00:38:07;;;;;;;4.10;1.50;;;11.20;99.90;;;;;;5024372;28;20227;-53
2022/05/13 00:40:35;;;;;;;7.77;1.87;;;11.20;99.90;;;;;;5017902;28;20208;-51
2022/05/13 00:43:05;;;;;;;4.87;1.50;;;11.10;99.90;;;;;;5032024;28;20538;-49
2022/05/13 00:45:34;;;;;;;2.13;1.63;;;11.10;99.90;;;;;;5023306;28;20222;-48
2022/05/13 00:48:02;;;;;;;6.77;1.60;;;11.10;99.90;;;;;;5010054;28;20672;-51
2022/05/13 00:50:31;;;;;;;5.13;1.53;;;11.10;99.90;;;;;;5026630;28;20234;-50
2022/05/13 00:52:58;;;;;;;3.27;1.50;;;11.00;99.90;;;;;;5024136;28;20550;-50
2022/05/13 00:55:31;;;;;;;2.73;1.50;;;10.90;99.90;;;;;;5021224;28;20584;-51
2022/05/13 00:57:59;;;;;;;3.67;1.37;;;10.90;99.90;;;;;;5024273;28;20575;-55
2022/05/13 01:00:27;;;;;;;2.87;1.60;;;10.90;99.90;;;;;;5021083;28;20210;-52
2022/05/13 01:02:55;;;;;;;1.80;1.40;;;10.90;99.90;;;;;;5008655;28;20208;-49
2022/05/13 01:05:23;;;;;;;5.13;1.73;;;10.80;99.90;;;;;;5024652;28;20215;-52
2022/05/13 01:07:51;;;;;;;3.17;1.70;;;10.70;99.90;;;;;;5028555;28;20199;-54
2022/05/13 01:10:20;;;;;;;7.07;2.07;;;10.70;99.90;;;;;;5019587;28;20251;-51
2022/05/13 01:12:52;;;;;;;5.30;1.63;;;10.60;99.90;;;;;;5025891;28;20965;-50
2022/05/13 01:15:23;;;;;;;2.83;1.90;;;10.60;99.90;;;;;;5022101;28;20330;-53
2022/05/13 01:18:06;;;;;;;3.10;1.63;;;10.50;99.90;;;;;;5010326;28;20428;-51
2022/05/13 01:20:38;;;;;;;3.07;1.60;;;10.50;99.90;;;;;;5018335;28;20217;-49
2022/05/13 01:23:10;;;;;;;5.27;1.80;;;10.50;99.90;;;;;;5024716;28;20200;-51
2022/05/13 01:25:41;;;;;;;4.80;2.13;;;10.50;99.90;;;;;;5019271;28;20921;-53
2022/05/13 01:28:11;;;;;;;3.00;1.80;;;10.50;99.90;;;;;;5023194;28;20739;-51
2022/05/13 01:30:43;;;;;;;6.17;2.30;;;10.50;99.90;;;;;;5019915;28;20200;-48
2022/05/13 01:33:11;;;;;;;3.73;1.87;;;10.40;99.90;;;;;;5010716;28;20208;-51
2022/05/13 01:35:44;;;;;;;3.43;1.63;;;10.40;99.90;;;;;;5025123;28;20212;-48
2022/05/13 01:38:14;;;;;;;4.90;2.00;;;10.40;99.90;;;;;;5023430;28;20219;-51
2022/05/13 01:40:42;;;;;;;5.63;2.17;;;10.30;99.90;;;;;;5019714;28;20656;-51
2022/05/13 01:43:09;;;;;;;4.53;2.07;;;10.30;99.90;;;;;;5034653;28;20211;-49
2022/05/13 01:45:37;;;;;;;4.17;1.83;;;10.20;99.90;;;;;;5019828;28;20216;-47
2022/05/13 01:48:06;;;;;;;3.33;1.97;;;10.30;99.90;;;;;;5023464;28;20246;-49
2022/05/13 01:50:34;;;;;;;3.17;2.00;;;10.20;99.90;;;;;;5009707;28;20752;-53
2022/05/13 01:53:00;;;;;;;4.23;1.90;;;10.20;99.90;;;;;;5030250;28;20204;-49
2022/05/13 01:55:28;;;;;;;3.57;1.70;;;10.20;99.90;;;;;;5019718;28;20707;-52
2022/05/13 01:57:55;;;;;;;2.70;1.80;;;10.10;99.90;;;;;;5022973;28;20219;-48
2022/05/13 02:00:22;;;;;;;3.80;2.07;;;10.10;99.90;;;;;;5021244;28;20200;-49
2022/05/13 02:05:34;;;;;;;6.17;2.63;;;10.00;99.90;;;;;;5012280;28;20811;-52
2022/05/13 02:08:01;;;;;;;7.10;2.10;;;10.00;99.90;;;;;;5025015;28;20215;-52
2022/05/13 02:10:29;;;;;;;3.87;1.70;;;10.00;99.90;;;;;;5017180;28;20201;-52
2022/05/13 02:12:56;;;;;;;8.67;2.33;;;10.00;99.90;;;;;;5030708;28;20207;-53
2022/05/13 02:15:23;;;;;;;2.70;1.87;;;9.90;99.90;;;;;;5025070;28;20249;-53
2022/05/13 02:17:50;;;;;;;4.37;2.10;;;9.90;99.90;;;;;;5022746;28;20921;-52
2022/05/13 02:20:17;;;;;;;3.13;1.87;;;9.90;99.90;;;;;;5010934;28;20558;-55
2022/05/13 02:22:44;;;;;;;4.03;1.73;;;9.80;99.90;;;;;;5036116;28;20387;-54
2022/05/13 02:25:12;;;;;;;6.43;2.50;;;9.80;99.90;;;;;;5030203;28;20738;-55
2022/05/13 02:27:40;;;;;;;6.70;2.23;;;9.80;99.90;;;;;;5023374;28;20254;-47
2022/05/13 02:30:08;;;;;;;2.73;2.10;;;9.70;99.90;;;;;;5026935;28;20215;-51
2022/05/13 02:32:36;;;;;;;3.87;2.40;;;9.70;99.90;;;;;;5022807;28;20192;-49
2022/05/13 02:35:03;;;;;;;2.97;2.00;;;9.80;99.90;;;;;;5012170;28;20254;-49
2022/05/13 02:37:30;;;;;;;5.70;2.30;;;9.70;99.90;;;;;;5034646;28;20213;-50
2022/05/13 02:39:57;;;;;;;6.10;2.40;;;9.70;99.90;;;;;;5026322;28;20207;-49
2022/05/13 02:42:23;;;;;;;3.43;2.00;;;9.60;99.90;;;;;;5025154;28;20649;-51
2022/05/13 02:44:52;;;;;;;5.90;1.80;;;9.60;99.90;;;;;;5025697;28;20196;-47
2022/05/13 02:47:19;;;;;;;3.70;2.23;;;9.60;99.90;;;;;;5025016;28;20200;-52
2022/05/13 02:49:45;;;;;;;3.60;1.87;;;9.60;99.90;;;;;;5009655;28;20231;-53
2022/05/13 02:52:12;;;;;;;3.30;1.80;;;9.50;99.90;;;;;;5032809;28;20202;-51
2022/05/13 02:54:39;;;;;;;5.30;2.40;;;9.40;99.90;;;;;;5022565;28;20288;-50
2022/05/13 02:57:06;;;;;;;6.37;2.53;;;9.30;99.90;;;;;;5026296;28;20579;-53
2022/05/13 02:59:33;;;;;;;6.03;2.13;;;9.20;99.90;;;;;;5022347;28;20203;-52
2022/05/13 03:02:02;;;;;;;3.77;2.40;;;9.20;99.90;;;;;;5026269;28;20212;-48
2022/05/13 03:04:29;;;;;;;5.10;2.17;;;9.30;99.90;;;;;;5022239;28;20211;-50
2022/05/13 03:06:55;;;;;;;4.37;2.00;;;9.30;99.90;;;;;;5011336;28;20227;-51
2022/05/13 03:09:22;;;;;;;4.93;2.30;;;9.20;99.90;;;;;;5025132;28;20206;-50
2022/05/13 03:11:49;;;;;;;6.87;2.77;;;9.30;99.90;;;;;;5030187;28;20198;-50
2022/05/13 03:14:16;;;;;;;2.43;2.00;;;9.30;99.90;;;;;;5032381;28;20216;-52
2022/05/13 03:16:43;;;;;;;6.93;2.93;;;9.30;99.90;;;;;;5023383;28;20413;-47
2022/05/13 03:19:11;;;;;;;3.47;2.10;;;9.30;99.90;;;;;;5025959;28;20224;-49
2022/05/13 03:21:38;;;;;;;8.00;2.90;;;9.40;99.90;;;;;;5007376;28;20212;-51
2022/05/13 03:24:05;;;;;;;4.03;2.40;;;9.50;99.90;;;;;;5030636;28;20227;-48
2022/05/13 03:26:32;;;;;;;9.13;2.60;;;9.50;99.90;;;;;;5021736;28;20227;-51
2022/05/13 03:28:59;;;;;;;6.43;2.87;;;9.60;99.90;;;;;;5025538;28;20246;-47
2022/05/13 03:31:26;;;;;;;8.00;2.90;;;9.70;99.90;;;;;;5023887;28;20199;-41
2022/05/13 03:33:53;;;;;;;6.07;2.67;;;9.70;99.90;;;;;;5025679;28;20200;-42
2022/05/13 03:36:21;;;;;;;5.70;2.93;;;9.80;99.90;;;;;;5023831;28;20223;-41
2022/05/13 03:38:47;;;;;;;6.53;2.60;;;9.90;99.90;;;;;;5014866;28;20215;-42
2022/05/13 03:41:14;;;;;;;6.57;2.67;;;10.00;99.90;;;;;;5031058;28;20196;-42
2022/05/13 03:43:41;;;;;;;6.13;2.83;;;10.10;99.90;;;;;;5027719;28;20202;-40
2022/05/13 03:46:08;;;;;;;5.63;3.10;;;10.10;99.90;;;;;;5025327;28;20216;-41
2022/05/13 03:48:34;;;;;;;7.30;3.20;;;10.20;99.90;;;;;;5021590;28;20860;-43
2022/05/13 03:51:01;;;;;;;3.37;2.73;;;10.30;99.90;;;;;;5025481;28;20212;-45
2022/05/13 03:53:29;;;;;;;4.87;2.70;;;10.30;99.90;;;;;;5008286;28;20206;-40
2022/05/13 03:55:56;;;;;;;7.27;3.27;;;10.40;99.90;;;;;;5025710;28;20224;-40
2022/05/13 03:58:23;;;;;;;9.33;3.30;;;10.40;99.90;;;;;;5033655;28;20699;-40
2022/05/13 04:00:51;;;;;;;5.17;2.87;;;10.50;99.90;;;;;;5014113;28;20216;-41
2022/05/13 04:03:19;;;;;;;5.93;3.10;;;10.50;99.90;;;;;;5035260;28;20191;-39
2022/05/13 04:11:17;;;;;;;7.33;4.00;;;10.70;99.90;;;;;;5004757;28;20987;-40
2022/05/13 04:16:28;;;;;;;4.00;2.80;;;10.80;99.90;;;;;;5026783;28;20907;-41
2022/05/13 04:18:55;;;;;;;6.87;3.30;;;10.80;99.90;;;;;;5023994;28;20232;-39
2022/05/13 04:21:25;;;;;;;9.77;3.40;;;10.80;99.90;;;;;;5016485;28;20193;-39
2022/05/13 04:23:56;;;;;;;8.60;3.17;;;10.90;99.90;;;;;;5023010;28;20744;-40
2022/05/13 04:26:24;;;;;;;7.10;3.30;;;10.90;99.90;;;;;;5008374;28;20211;-42
2022/05/13 04:28:52;;;;;;;6.07;3.83;;;11.00;99.90;;;;;;5023922;28;20196;-42
2022/05/13 04:31:23;;;;;;;6.10;3.40;;;11.00;99.90;;;;;;5018709;28;20479;-39
2022/05/13 04:33:50;;;;;;;7.10;4.30;;;11.00;99.90;;;;;;5019235;28;20235;-42
2022/05/13 04:36:18;;;;;;;9.83;5.20;;;11.10;99.90;;;;;;5010313;28;20207;-42
2022/05/13 04:38:46;;;;;;;6.83;5.00;;;11.10;99.90;;;;;;5033640;28;20756;-42
2022/05/13 04:44:00;;;;;;;7.13;4.20;;;11.20;99.90;;;;;;5013141;28;20216;-45
2022/05/13 04:46:27;;;;;;;8.57;3.77;;;11.20;99.90;;;;;;5018781;28;20294;-46
2022/05/13 04:48:54;;;;;;;10.23;4.57;;;11.20;99.90;;;;;;5021142;28;20599;-41
2022/05/13 04:51:21;;;;;;;7.00;3.87;;;11.30;99.90;;;;;;5018038;28;20192;-42
2022/05/13 04:53:51;;;;;;;14.93;5.00;;;11.30;99.90;;;;;;5020690;28;20204;-40
2022/05/13 04:56:21;;;;;;;5.50;4.07;;;11.30;99.90;;;;;;5027348;28;20199;-40
2022/05/13 04:58:48;;;;;;;9.67;3.83;;;11.40;99.90;;;;;;5010401;28;20226;-42
2022/05/13 05:01:18;;;;;;;10.67;5.10;;;11.40;99.90;;;;;;5011807;28;20966;-40
2022/05/13 05:03:45;;;;;;;7.67;4.27;;;11.40;99.90;;;;;;5021956;28;20246;-42
2022/05/13 05:06:15;;;;;;;5.50;3.40;;;11.50;99.90;;;;;;5018537;28;20212;-38
2022/05/13 05:08:43;;;;;;;11.20;4.27;;;11.50;99.90;;;;;;5021878;28;20200;-42
2022/05/13 05:11:11;;;;;;;4.60;3.83;;;11.50;99.90;;;;;;5012455;28;20200;-40
2022/05/13 05:13:42;;;;;;;9.30;4.50;;;11.50;99.90;;;;;;4952237;28;1604980;-42
2022/05/13 05:16:10;;;;;;;9.23;3.80;;;11.50;99.90;;;;;;5021324;28;20692;-39
2022/05/13 05:18:38;;;;;;;8.83;4.30;;;11.60;99.90;;;;;;5022412;28;20235;-39
2022/05/13 05:21:06;;;;;;;11.83;5.23;;;11.60;99.90;;;;;;5010646;28;20227;-44
2022/05/13 05:23:35;;;;;;;8.20;4.03;;;11.60;99.90;;;;;;5022528;28;20207;-43
2022/05/13 05:26:03;;;;;;;9.77;4.53;;;11.60;99.90;;;;;;5014433;28;20232;-42
2022/05/13 05:28:30;;;;;;;6.57;4.10;;;11.60;99.90;;;;;;5011295;28;20195;-40
2022/05/13 05:31:00;;;;;;;9.10;4.07;;;11.70;99.90;;;;;;5018713;28;20579;-41
2022/05/13 05:33:27;;;;;;;7.30;4.50;;;11.70;99.90;;;;;;5021059;28;20207;-40
2022/05/13 05:35:54;;;;;;;8.13;3.87;;;11.70;99.90;;;;;;5021926;28;20220;-42
2022/05/13 05:38:21;;;;;;;3.80;2.97;;;11.70;99.90;;;;;;5011644;28;20223;-43
2022/05/13 05:40:48;;;;;;;9.03;4.40;;;11.70;99.90;;;;;;5024645;28;20279;-40
2022/05/13 05:43:17;;;;;;;6.70;3.53;;;11.70;99.90;;;;;;5006111;28;20294;-46
2022/05/13 05:45:44;;;;;;;5.40;3.70;;;11.70;99.90;;;;;;5028138;28;20639;-40
2022/05/13 05:48:14;;;;;;;11.13;4.27;;;11.80;99.90;;;;;;5011873;28;20204;-41
2022/05/13 05:50:41;;;;;;;6.97;3.73;;;11.80;99.90;;;;;;5020444;28;20199;-40
2022/05/13 05:53:08;;;;;;;4.27;3.13;;;11.90;99.90;;;;;;5015191;28;20269;-40
2022/05/13 05:58:19;;;;;;;4.63;3.67;;;11.90;99.90;;;;;;5007169;28;20220;-40
2022/05/13 06:00:49;;;;;;;4.70;3.40;;;11.90;99.90;;;;;;5029186;28;20203;-41
2022/05/13 06:03:19;;;;;;;6.57;3.67;;;11.90;99.90;;;;;;5022267;28;20215;-42
2022/05/13 06:05:50;;;;;;;7.57;4.10;;;12.00;99.90;;;;;;5020681;28;20220;-40
2022/05/13 06:08:17;;;;;;;9.17;3.70;;;12.00;99.90;;;;;;5026985;28;20556;-45
2022/05/13 06:10:44;;;;;;;4.60;3.10;;;12.00;99.90;;;;;;5020584;28;20196;-40
2022/05/13 06:13:11;;;;;;;7.87;5.10;;;12.00;99.90;;;;;;5030088;28;21091;-38
2022/05/13 06:15:38;;;;;;;7.00;3.80;;;12.10;99.90;;;;;;5012305;28;20219;-38
2022/05/13 06:18:05;;;;;;;10.17;5.00;;;12.10;99.90;;;;;;5026246;28;20234;-41
2022/05/13 06:20:33;;;;;;;7.53;4.10;;;12.10;99.90;;;;;;5025477;28;20668;-42
2022/05/13 06:23:00;;;;;;;5.93;2.70;;;12.10;99.90;;;;;;5019335;28;20192;-38
2022/05/13 06:25:27;;;;;;;9.37;4.30;;;12.10;99.90;;;;;;5019863;28;20219;-39
2022/05/13 06:27:55;;;;;;;7.20;3.60;;;12.20;99.90;;;;;;5027826;28;20196;-42
2022/05/13 06:30:24;;;;;;;9.43;3.87;;;12.20;99.90;;;;;;5005850;28;20204;-39
2022/05/13 06:32:52;;;;;;;10.73;5.33;;;12.20;99.90;;;;;;5021149;28;20208;-39
2022/05/13 06:35:20;;;;;;;6.73;4.00;;;12.30;99.90;;;;;;5024020;28;20298;-41
2022/05/13 06:37:48;;;;;;;9.17;4.13;;;12.30;99.90;;;;;;5020075;28;20343;-42
2022/05/13 06:40:15;;;;;;;7.17;3.60;;;12.20;99.90;;;;;;5017868;28;20224;-41
2022/05/13 06:42:42;;;;;;;8.33;4.60;;;12.30;99.90;;;;;;5023798;28;20680;-44
2022/05/13 06:45:10;;;;;;;6.57;3.83;;;12.20;99.90;;;;;;5000494;28;20200;-38
2022/05/13 06:47:38;;;;;;;6.43;3.83;;;12.20;99.90;;;;;;5007467;28;20208;-42
2022/05/13 06:50:08;;;;;;;5.50;4.40;;;12.30;99.90;;;;;;5030431;28;20188;-40
2022/05/13 06:52:34;;;;;;;12.20;3.40;;;12.30;99.90;;;;;;5022449;28;20272;-41
2022/05/13 06:55:03;;;;;;;6.27;3.13;;;12.30;99.90;;;;;;5018953;28;20203;-43
2022/05/13 06:57:30;;;;;;;6.23;3.40;;;12.40;99.90;;;;;;5022578;28;20704;-40
2022/05/13 06:59:57;;;;;;;8.57;4.40;;;12.40;99.90;;;;;;5013722;28;20243;-41
2022/05/13 07:02:27;;;;;;;8.10;4.30;;;12.40;99.90;;;;;;5008717;28;20212;-39
2022/05/13 07:04:54;;;;;;;6.27;4.57;;;12.40;99.90;;;;;;5026194;28;20396;-41
2022/05/13 07:07:20;;;;;;;6.83;4.77;;;12.40;99.90;;;;;;5026575;28;20204;-42
2022/05/13 07:09:47;;;;;;;9.97;4.17;;;12.40;99.90;;;;;;5022827;28;20687;-41
2022/05/13 07:12:16;;;;;;;10.30;4.70;;;12.40;99.90;;;;;;5021053;28;20201;-40
2022/05/13 07:14:43;;;;;;;6.90;4.03;;;12.40;99.90;;;;;;5025989;28;20208;-39
2022/05/13 07:17:09;;;;;;;5.67;3.63;;;12.40;99.90;;;;;;5003226;28;20247;-40
2022/05/13 07:19:36;;;;;;;9.17;5.23;;;12.40;99.90;;;;;;5027166;28;20216;-39
2022/05/13 07:22:06;;;;;;;5.67;3.80;;;12.40;99.90;;;;;;5021180;28;20345;-42
2022/05/13 07:24:33;;;;;;;6.43;3.40;;;12.40;99.90;;;;;;5028598;28;20204;-41
2022/05/13 07:27:00;;;;;;;6.13;2.93;;;12.40;99.90;;;;;;5031026;28;20219;-42
2022/05/13 07:29:30;;;;;;;7.10;3.70;;;12.40;99.90;;;;;;5025998;28;20249;-40
2022/05/13 07:31:56;;;;;;;6.23;3.67;;;12.40;99.90;;;;;;5029008;28;20196;-43
2022/05/13 07:34:23;;;;;;;8.37;3.83;;;12.40;99.90;;;;;;5013516;28;20547;-39
2022/05/13 07:36:53;;;;;;;7.57;3.80;;;12.50;99.90;;;;;;5028154;28;20325;-39
2022/05/13 07:42:05;;;;;;;6.23;3.50;;;12.60;99.90;;;;;;5022230;28;20188;-39
2022/05/13 07:44:34;;;;;;;10.77;4.40;;;12.70;99.90;;;;;;5035136;28;20192;-43
2022/05/13 07:47:01;;;;;;;6.37;3.10;;;12.80;99.90;;;;;;5021912;28;20224;-39
2022/05/13 07:49:28;;;;;;;5.10;3.60;;;12.90;99.90;;;;;;5016928;28;20648;-39
2022/05/13 07:51:55;;;;;;;4.47;3.20;;;12.90;99.90;;;;;;5014155;28;20208;-43
2022/05/13 07:54:22;;;;;;;7.50;3.80;;;13.00;99.90;;;;;;5024961;28;20207;-39
2022/05/13 07:56:49;;;;;;;6.03;3.40;;;13.10;99.90;;;;;;5003663;28;20318;-40
2022/05/13 07:59:16;;;;;;;5.57;3.80;;;13.10;99.90;;;;;;5025029;28;20579;-40
2022/05/13 08:01:44;;;;;;;10.50;3.97;;;13.10;99.90;;;;;;5022575;28;20657;-39
2022/05/13 08:04:12;;;;;;;5.90;3.60;;;13.10;99.90;;;;;;5009607;28;20203;-39
2022/05/13 08:06:39;;;;;;;13.07;4.17;;;13.10;99.90;;;;;;5033182;28;20219;-41
2022/05/13 08:09:05;;;;;;;5.60;3.67;;;13.20;99.90;;;;;;5023148;28;20243;-44
2022/05/13 08:11:32;;;;;;;9.97;3.67;;;13.10;99.90;;;;;;5022901;28;20199;-42
2022/05/13 08:14:01;;;;;;;11.77;4.07;;;13.20;99.90;;;;;;5018232;28;20222;-43
2022/05/13 08:16:29;;;;;;;7.40;3.73;;;13.20;99.90;;;;;;5029734;28;20239;-42
2022/05/13 08:19:02;;;;;;;9.27;3.70;;;13.20;99.90;;;;;;5022328;28;20411;-42
2022/05/13 08:21:30;;;;;;;11.43;4.30;;;13.20;99.90;;;;;;5011632;28;20207;-42
2022/05/13 08:23:56;;;;;;;8.83;4.03;;;13.20;99.90;;;;;;5026930;28;20191;-39
2022/05/13 08:26:23;;;;;;;9.13;3.90;;;13.20;99.90;;;;;;5024634;28;20212;-45
2022/05/13 08:28:51;;;;;;;6.43;3.60;;;13.20;99.90;;;;;;5011839;28;20208;-43
2022/05/13 08:31:18;;;;;;;11.97;4.17;;;13.20;99.90;;;;;;5024547;28;20254;-43
2022/05/13 08:33:45;;;;;;;10.93;4.57;;;13.20;99.90;;;;;;5016769;28;20208;-39
2022/05/13 08:36:13;;;;;;;8.53;4.00;;;13.30;99.90;;;;;;5008931;28;20253;-40
2022/05/13 08:38:40;;;;;;;7.37;3.80;;;13.30;99.90;;;;;;5027700;28;20206;-40
2022/05/13 08:41:19;;;;;;;7.00;3.77;;;13.30;99.90;;;;;;5016395;28;20192;-40
2022/05/13 08:43:50;;;;;;;7.27;3.63;;;13.40;99.90;;;;;;5029580;28;20195;-41
2022/05/13 08:46:25;;;;;;;5.50;3.47;;;13.40;99.90;;;;;;5024904;28;20215;-42
2022/05/13 08:48:55;;;;;;;8.30;3.87;;;13.50;99.90;;;;;;5026986;28;20187;-43
2022/05/13 08:51:37;;;;;;;8.90;4.77;;;13.70;99.90;;;;;;5012732;28;20290;-43
2022/05/13 08:54:11;;;;;;;11.97;4.37;;;13.90;99.90;;;;;;5023721;28;20350;-40
2022/05/13 08:56:39;;;;;;;8.03;3.70;;;13.90;99.90;;;;;;5022627;28;20596;-40
2022/05/13 08:59:09;;;;;;;13.90;4.30;;;14.00;99.90;;;;;;5023011;28;20261;-40
2022/05/13 09:01:38;;;;;;;10.13;4.37;;;14.10;99.90;;;;;;5026703;28;20295;-39
2022/05/13 09:04:10;;;;;;;6.17;4.10;;;14.10;99.90;;;;;;5018215;28;20199;-40
2022/05/13 09:06:43;;;;;;;11.20;4.47;;;14.10;99.90;;;;;;5015296;28;20231;-42
2022/05/13 09:09:12;;;;;;;9.40;4.40;;;14.10;99.90;;;;;;5027828;28;20277;-39
2022/05/13 09:11:49;;;;;;;9.03;4.00;;;14.20;99.90;;;;;;5022398;28;20210;-41
2022/05/13 09:14:26;;;;;;;10.97;3.87;;;14.30;99.90;;;;;;5028880;28;20215;-40
2022/05/13 09:16:58;;;;;;;7.17;4.03;;;;;;;;;;5017365;28;20298;-41
2022/05/13 09:19:34;;;;;;;8.77;3.70;;;14.60;99.90;;;;;;5025927;28;20226;-39
2022/05/13 09:22:04;;;;;;;16.00;4.40;;;14.70;99.90;;;;;;5006143;28;20204;-40
2022/05/13 09:24:31;;;;;;;9.77;4.23;;;14.70;99.90;;;;;;5032944;28;20249;-42
2022/05/13 09:26:58;;;;;;;9.13;3.97;;;14.80;99.90;;;;;;5013915;28;20238;-44
2022/05/13 09:29:24;;;;;;;10.33;4.70;;;14.80;99.90;;;;;;5025897;28;20206;-41
2022/05/13 09:32:04;;;;;;;9.90;4.40;;;14.90;99.90;;;;;;5024870;28;20199;-45
2022/05/13 09:34:39;;;;;;;14.33;4.27;;;15.00;99.90;;;;;;5018643;28;20620;-41
2022/05/13 09:37:10;;;;;;;10.00;4.87;;;;;;;;;;5018521;28;20354;-40
2022/05/13 09:39:39;;;;;;;11.50;4.27;;;14.90;99.90;;;;;;5024873;28;20212;-41
2022/05/13 09:42:23;;;;;;;10.70;4.50;;;15.00;99.90;;;;;;5008732;28;20261;-43
2022/05/13 09:44:52;;;;;;;9.33;4.30;;;15.00;99.90;;;;;;5021166;28;20223;-40
2022/05/13 09:47:28;;;;;;;11.30;4.67;;;15.10;99.90;;;;;;5031569;28;20204;-44
2022/05/13 09:49:57;;;;;;;9.10;4.20;;;15.00;99.90;;;;;;5015184;28;20261;-42
2022/05/13 09:52:34;;;;;;;10.57;4.63;;;15.00;99.90;;;;;;5023357;28;20653;-41
2022/05/13 09:55:13;;;;;;;10.90;4.33;;;14.90;99.90;;;;;;5020258;28;20196;-41
2022/05/13 09:57:40;;;;;;;7.87;4.20;;;14.90;99.90;;;;;;5022646;28;20200;-42
2022/05/13 10:00:15;;;;;;;10.50;4.80;;;14.90;99.90;;;;;;5027313;28;20223;-42
2022/05/13 10:02:44;;;;;;;10.53;4.33;;;14.80;99.90;;;;;;5021027;28;20652;-41
2022/05/13 10:05:14;;;;;;;6.17;3.67;;;14.80;99.90;;;;;;5015815;28;20210;-43
2022/05/13 10:07:55;;;;;;;10.93;4.67;;;14.80;99.90;;;;;;5022392;28;20195;-40
2022/05/13 10:15:59;;;;;;;7.53;4.00;;;14.80;99.90;;;;;;5008844;28;20283;-43
2022/05/13 10:18:29;;;;;;;10.47;4.10;;;14.90;99.90;;;;;;5001995;28;20209;-42
2022/05/13 10:21:02;;;;;;;6.43;3.43;;;14.90;99.90;;;;;;5014374;28;20218;-44
2022/05/13 10:23:36;;;;;;;7.00;4.00;;;15.00;99.90;;;;;;5016952;28;20542;-43
2022/05/13 10:26:07;;;;;;;8.30;3.93;;;15.30;99.90;;;;;;5008501;28;20223;-44
2022/05/13 10:28:38;;;;;;;10.57;3.57;;;15.40;99.90;;;;;;5015248;28;20219;-41
2022/05/13 10:31:10;;;;;;;10.23;4.07;;;15.50;99.90;;;;;;5021593;28;20192;-45
2022/05/13 10:33:42;;;;;;;8.93;3.90;;;15.30;99.90;;;;;;5009073;28;20695;-40
2022/05/13 10:36:13;;;;;;;12.63;4.63;;;15.10;99.90;;;;;;5019100;28;20217;-39
2022/05/13 10:38:45;;;;;;;9.40;4.67;;;14.80;99.90;;;;;;5019625;28;20200;-41
2022/05/13 10:41:23;;;;;;;11.37;5.47;;;14.30;99.90;;;;;;5021284;28;20216;-44
2022/05/13 10:43:57;;;;;;;9.43;5.00;;;14.00;99.90;;;;;;5018632;28;20199;-44
2022/05/13 10:46:29;;;;;;;11.80;5.80;;;13.90;99.90;;;;;;5024060;28;20224;-43
2022/05/13 10:48:57;;;;;;;7.40;5.03;;;13.60;99.90;;;;;;5020871;28;20628;-43
2022/05/13 10:51:31;;;;;;;11.17;5.43;;;13.50;99.90;;;;;;5030067;28;20254;-45
2022/05/13 10:54:20;;;;;;;13.30;6.33;;;13.60;99.90;;;;;;5023232;28;20191;-42
2022/05/13 10:56:55;;;;;;;8.63;5.20;;;13.60;99.90;;;;;;5003213;28;20311;-40
2022/05/13 10:59:36;;;;;;;10.37;4.93;;;13.70;99.90;;;;;;5027288;28;20663;-44
2022/05/13 11:02:19;;;;;;;8.67;3.97;;;13.60;99.90;;;;;;5024518;28;20192;-47
2022/05/13 11:04:52;;;;;;;9.43;4.33;;;13.60;99.90;;;;;;5010686;28;20208;-40
2022/05/13 11:07:29;;;;;;;4.30;3.50;;;13.60;99.90;;;;;;5034339;28;20199;-42
2022/05/13 11:10:03;;;;;;;10.20;4.73;;;13.50;99.90;;;;;;5024566;28;20413;-40
2022/05/13 11:12:37;;;;;;;6.87;3.80;;;13.50;99.90;;;;;;5006578;28;20560;-40
2022/05/13 11:15:18;;;;;;;7.47;3.87;;;13.40;99.90;;;;;;5023471;28;20203;-42
2022/05/13 11:17:51;;;;;;;6.93;3.70;;;13.50;99.90;;;;;;5015003;28;20278;-40
2022/05/13 11:20:28;;;;;;;6.37;3.40;;;13.70;99.90;;;;;;5028159;28;20242;-41
2022/05/13 11:23:07;;;;;;;6.33;3.83;;;13.90;99.90;;;;;;5018516;28;20210;-41
2022/05/13 11:25:56;;;;;;;5.20;4.10;;;14.00;99.90;;;;;;5021331;28;20704;-40
2022/05/13 11:28:36;;;;;;;6.90;4.03;;;14.00;99.90;;;;;;5010696;28;20698;-40
2022/05/13 11:31:09;;;;;;;5.07;3.33;;;14.10;99.90;;;;;;5024604;28;20195;-41
2022/05/13 11:33:42;;;;;;;5.87;3.20;;;14.10;99.90;;;;;;5017148;28;20211;-40
2022/05/13 11:36:29;;;;;;;4.60;3.10;;;14.10;99.90;;;;;;5019254;28;20577;-43
2022/05/13 11:39:10;;;;;;;5.90;2.57;;;14.20;99.90;;;;;;5025782;28;20228;-40
2022/05/13 11:41:49;;;;;;;3.07;2.20;;;14.30;99.90;;;;;;5019073;28;20246;-42
2022/05/13 11:44:20;;;;;;;6.07;2.63;;;14.30;99.90;;;;;;5031935;28;20204;-42
2022/05/13 11:46:53;;;;;;;6.97;2.63;;;14.50;99.90;;;;;;5024830;28;20219;-40
2022/05/13 11:49:26;;;;;;;5.00;2.50;;;14.70;99.90;;;;;;5019147;28;20207;-41
2022/05/13 11:51:54;;;;;;;3.67;2.20;;;14.70;99.90;;;;;;4991249;28;20255;-42
2022/05/13 11:54:25;;;;;;;4.93;3.13;;;14.80;99.90;;;;;;5018794;28;20210;-40
2022/05/13 11:57:23;;;;;;;4.53;2.63;;;14.80;99.90;;;;;;5024940;28;20223;-43
2022/05/13 11:59:52;;;;;;;5.70;3.10;;;14.80;99.90;;;;;;5022581;28;20222;-40
2022/05/13 12:02:32;;;;;;;6.50;3.83;;;14.70;99.90;;;;;;5027139;28;20208;-40
2022/05/13 12:05:26;;;;;;;5.17;2.80;;;14.70;99.90;;;;;;5019476;28;20208;-40
2022/05/13 12:08:02;;;;;;;6.40;2.70;;;14.90;99.90;;;;;;5017194;28;20246;-40
2022/05/13 12:10:37;;;;;;;4.50;2.57;;;15.00;99.90;;;;;;5021517;28;20208;-40
2022/05/13 12:13:21;;;;;;;7.17;3.00;;;15.00;99.90;;;;;;5009041;28;20200;-39
2022/05/13 12:16:05;;;;;;;4.53;3.00;;;15.00;99.90;;;;;;5033511;28;20231;-40
2022/05/13 12:18:42;;;;;;;6.13;3.10;;;14.90;99.90;;;;;;5021914;28;20200;-39
2022/05/13 12:21:22;;;;;;;8.13;3.30;;;14.80;99.90;;;;;;5016889;28;20708;-41
2022/05/13 12:23:54;;;;;;;5.03;3.20;;;14.70;99.90;;;;;;5029700;28;20203;-44
2022/05/13 12:26:24;;;;;;;5.03;3.50;;;14.60;99.90;;;;;;5020695;28;20228;-40
2022/05/13 12:29:16;;;;;;;6.27;3.40;;;14.60;99.90;;;;;;5010137;28;20246;-41
2022/05/13 12:32:04;;;;;;;6.50;3.10;;;14.60;99.90;;;;;;5025626;28;20196;-41
2022/05/13 12:37:38;;;;;;;5.17;2.73;;;14.60;99.90;;;;;;4936000;29;20203;-40
2022/05/13 12:40:17;;;;;;;4.40;2.87;;;14.60;99.90;;;;;;4941253;29;20210;-39
2022/05/13 12:42:59;;;;;;;4.80;2.10;;;14.70;99.90;;;;;;4982691;28;20223;-42
2022/05/13 12:45:58;;;;;;;5.97;2.53;;;14.80;99.90;;;;;;5009272;28;20211;-41
2022/05/13 12:48:25;;;;;;;3.73;1.80;;;14.90;99.90;;;;;;5027680;28;20203;-42
2022/05/13 12:51:13;;;;;;;5.03;1.73;;;14.90;99.90;;;;;;5029760;28;20314;-41
2022/05/13 12:53:46;;;;;;;4.73;2.10;;;14.90;99.90;;;;;;5017826;28;20220;-39
2022/05/13 12:56:23;;;;;;;3.00;2.30;;;15.00;99.90;;;;;;5021765;28;20281;-38
2022/05/13 12:58:59;;;;;;;3.23;2.30;;;15.10;99.90;;;;;;5018117;28;20207;-38
2022/05/13 13:01:29;;;;;;;6.03;2.50;;;15.10;99.90;;;;;;5007537;28;20738;-39
2022/05/13 13:03:56;;;;;;;3.83;1.90;;;15.10;99.90;;;;;;5031325;28;20209;-38
2022/05/13 13:06:23;;;;;;;8.47;2.47;;;15.00;99.90;;;;;;5019698;28;20746;-38
2022/05/13 13:08:52;;;;;;;6.43;2.40;;;15.00;99.90;;;;;;5018504;28;20292;-42
2022/05/13 13:11:27;;;;;;;3.80;2.30;;;14.90;99.90;;;;;;5020406;28;20641;-40
2022/05/13 13:14:01;;;;;;;6.87;2.50;;;14.80;99.90;;;;;;5023517;28;20218;-38
2022/05/13 13:16:36;;;;;;;2.93;2.20;;;14.80;99.90;;;;;;5005935;28;20327;-38
2022/05/13 13:19:12;;;;;;;3.30;2.20;;;14.70;99.90;;;;;;5033599;28;20206;-42
2022/05/13 13:21:39;;;;;;;2.17;1.97;;;14.70;99.90;;;;;;5020673;28;20923;-41
2022/05/13 13:24:16;;;;;;;5.23;1.97;;;14.60;99.90;;;;;;5021329;28;20200;-38
2022/05/13 13:26:48;;;;;;;4.47;1.77;;;14.70;99.90;;;;;;5023117;28;20311;-38
2022/05/13 13:29:19;;;;;;;6.80;2.27;;;14.60;99.90;;;;;;5020696;28;20286;-40
2022/05/13 13:31:51;;;;;;;3.30;2.17;;;14.60;99.90;;;;;;5009099;28;20196;-38